Startpagina
METAR-TAF:

METAR-TAF

Vliegvelden :

Guilin, China

breedte: 25-20N, lengte: 110-18E, hoogte: 166 m

Actueel weer

Dit bericht is 26 minuten geleden gemaakt, om 14:00 UTC
Wind 2 kt uit variabele richting
Temperatuur 12°C
Vochtigheid 88%
Druk 1021 hPa
Zicht: 6000 m
Verspreide wolken op 2300 ft
Geheel bewolkt op 4600 ft
lichte regen

METAR: ZGKL 191400Z VRB01MPS 6000 -RA SCT023 OVC046 12/10 Q1021 NOSIG

Tijdstip: 22:26 (14:26 UTC)

Verwachting

Dit bericht is 5 uur en het 16 minuten geleden gemaakt, om 09:10 UTC
Verwachting geldig van 19 om 12 UTC tot 20 om 12 UTC
Wind 6 kt uit het noordoosten
Zicht 10 km of meer
Verspreide wolken op 3300 ft
Geheel bewolkt op 5000 ft
Tijdelijke
van 19 om 17 UTC tot 19 om 23 UTC
Zicht: 2800 m
lichte regen, nevel

TAF: ZGKL 190910Z 1912/2012 05003MPS 9999 SCT033 OVC050 TX15/2008Z TN11/1922Z TEMPO 1917/1923 2800 -RA BR

Waarnemingen en weersverwachtingen van meer dan 4000 vliegvelden (METAR en TAF).

De beschikbare stations zijn de gele en rode punten op de kaart.

Ga met uw muis naar het station om de naam te zien.

Klik dan om waarnemingen en weersverwachtingen te zien.

kaart wijzigen: klik op de groene knoppen met een zwart kruis om in te zoomen, op de groene knop met een streepje om uit te zoomen of op de groene pijlen voor aangrenzende kaarten.


METAR-TAF: